createdAt,value
2019-03-12T00:02:06.173Z,92.90
2019-03-12T00:04:39.035Z,93.20
2019-03-12T00:07:11.334Z,93.40
2019-03-12T00:09:43.740Z,93.50
2019-03-12T00:12:16.315Z,93.90
2019-03-12T00:14:48.885Z,94.60
2019-03-12T00:17:21.374Z,95.20
2019-03-12T00:19:53.962Z,95.90
2019-03-12T00:22:26.517Z,96.00
2019-03-12T00:24:59.005Z,96.10
2019-03-12T00:27:31.713Z,96.40
2019-03-12T00:30:05.516Z,96.90
2019-03-12T00:32:38.070Z,97.50
2019-03-12T00:35:11.150Z,98.00
2019-03-12T00:37:43.543Z,98.10
2019-03-12T00:40:16.708Z,98.30
2019-03-12T00:42:48.949Z,98.60
2019-03-12T00:45:21.703Z,99.10
2019-03-12T00:47:54.061Z,99.10
2019-03-12T00:50:26.628Z,99.40
2019-03-12T00:52:59.160Z,99.70
2019-03-12T00:55:31.508Z,99.90
2019-03-12T00:58:04.033Z,99.90
2019-03-12T01:00:36.538Z,99.90
2019-03-12T01:03:10.324Z,99.90
2019-03-12T01:05:42.903Z,99.90
2019-03-12T01:08:15.640Z,99.90
2019-03-12T01:10:56.816Z,99.90
2019-03-12T01:13:30.097Z,99.90
2019-03-12T01:16:03.771Z,99.90
2019-03-12T01:18:36.095Z,99.90
2019-03-12T01:21:08.511Z,99.90
2019-03-12T01:23:41.147Z,99.90
2019-03-12T01:26:13.508Z,99.90
2019-03-12T01:28:45.987Z,99.90
2019-03-12T01:31:18.667Z,99.90
2019-03-12T01:33:51.146Z,99.90
2019-03-12T01:36:24.122Z,99.90
2019-03-12T01:38:56.745Z,99.90
2019-03-12T01:41:29.279Z,99.90
2019-03-12T01:44:01.531Z,99.90
2019-03-12T01:46:34.098Z,99.90
2019-03-12T01:49:06.600Z,99.90
2019-03-12T01:51:39.136Z,99.90
2019-03-12T01:54:11.903Z,99.90
2019-03-12T01:56:44.330Z,99.90
2019-03-12T01:59:16.863Z,99.90
2019-03-12T02:01:49.507Z,99.90
2019-03-12T02:04:22.271Z,99.90
2019-03-12T02:06:57.343Z,99.90
2019-03-12T02:09:30.755Z,99.90
2019-03-12T02:12:03.160Z,99.90
2019-03-12T02:14:35.960Z,99.90
2019-03-12T02:17:08.390Z,99.90
2019-03-12T02:19:40.752Z,99.90
2019-03-12T02:22:13.356Z,99.90
2019-03-12T02:24:52.797Z,99.90
2019-03-12T02:27:20.322Z,99.90
2019-03-12T02:29:53.065Z,99.90
2019-03-12T02:32:25.437Z,99.90
2019-03-12T02:34:58.045Z,99.90
2019-03-12T02:37:30.410Z,99.90
2019-03-12T02:40:02.996Z,99.90
2019-03-12T02:42:35.275Z,99.90
2019-03-12T02:45:09.483Z,99.90
2019-03-12T02:47:42.414Z,99.90
2019-03-12T02:50:14.963Z,99.90
2019-03-12T02:52:47.335Z,99.90
2019-03-12T02:55:19.781Z,99.90
2019-03-12T02:57:52.064Z,99.90
2019-03-12T03:00:25.108Z,99.90
2019-03-12T03:02:57.727Z,99.90
2019-03-12T03:05:30.879Z,99.90
2019-03-12T03:08:06.123Z,99.90
2019-03-12T03:10:38.682Z,99.90
2019-03-12T03:13:11.206Z,99.90
2019-03-12T03:15:45.353Z,99.90
2019-03-12T03:18:17.930Z,99.90
2019-03-12T03:20:50.473Z,99.90
2019-03-12T03:23:22.788Z,99.90
2019-03-12T03:25:55.193Z,99.90
2019-03-12T03:28:27.507Z,99.90
2019-03-12T03:30:59.998Z,99.90
2019-03-12T03:33:32.794Z,99.90
2019-03-12T03:36:05.240Z,99.90
2019-03-12T03:38:37.698Z,99.90
2019-03-12T03:41:10.198Z,99.90
2019-03-12T03:43:42.479Z,99.90
2019-03-12T03:46:14.958Z,99.90
2019-03-12T03:48:47.328Z,99.90
2019-03-12T03:51:19.761Z,99.90
2019-03-12T03:53:52.081Z,99.90
2019-03-12T03:56:26.519Z,99.90
2019-03-12T03:58:58.934Z,99.90
2019-03-12T04:01:31.467Z,99.90
2019-03-12T04:04:03.730Z,99.90
2019-03-12T04:06:36.259Z,99.90
2019-03-12T04:09:09.064Z,99.90
2019-03-12T04:11:41.401Z,99.90
2019-03-12T04:14:13.603Z,99.90
2019-03-12T04:16:45.932Z,99.90
2019-03-12T04:19:18.318Z,99.90
2019-03-12T04:21:50.827Z,99.90
2019-03-12T04:24:23.206Z,99.90
2019-03-12T04:26:55.962Z,99.90
2019-03-12T04:29:28.299Z,99.90
2019-03-12T04:32:00.826Z,99.90
2019-03-12T04:34:42.623Z,99.90
2019-03-12T04:37:15.118Z,99.90
2019-03-12T04:39:47.480Z,99.90
2019-03-12T04:42:19.733Z,99.90
2019-03-12T04:44:52.206Z,99.90
2019-03-12T04:47:24.438Z,99.90
2019-03-12T04:49:56.792Z,99.90
2019-03-12T04:52:29.338Z,99.90
2019-03-12T04:55:02.029Z,99.90
2019-03-12T04:57:34.274Z,99.90
2019-03-12T05:00:08.138Z,99.90
2019-03-12T05:02:40.705Z,99.90
2019-03-12T05:05:13.158Z,99.90
2019-03-12T05:07:45.784Z,99.90
2019-03-12T05:10:18.392Z,99.90
2019-03-12T05:12:50.753Z,99.90
2019-03-12T05:15:23.173Z,99.90
2019-03-12T05:17:55.671Z,99.90
2019-03-12T05:20:27.696Z,99.90
2019-03-12T05:22:59.979Z,99.90
2019-03-12T05:25:32.327Z,99.90
2019-03-12T05:28:04.653Z,99.90
2019-03-12T05:30:36.907Z,99.90
2019-03-12T05:33:09.502Z,99.90
2019-03-12T05:35:41.695Z,99.90
2019-03-12T05:38:14.426Z,99.90
2019-03-12T05:40:46.988Z,99.90
2019-03-12T05:43:19.484Z,99.90
2019-03-12T05:45:51.793Z,99.90
2019-03-12T05:48:24.216Z,99.90
2019-03-12T05:50:56.640Z,99.90
2019-03-12T05:53:46.755Z,99.90
2019-03-12T05:56:19.143Z,99.90
2019-03-12T05:58:51.869Z,99.90
2019-03-12T06:01:24.155Z,99.70
2019-03-12T06:03:56.652Z,99.80
2019-03-12T06:06:29.426Z,99.10
2019-03-12T06:09:03.765Z,98.40
2019-03-12T06:11:37.235Z,97.80
2019-03-12T06:14:09.774Z,97.60
2019-03-12T06:16:42.124Z,97.40
2019-03-12T06:19:14.483Z,95.70
2019-03-12T06:21:46.997Z,95.70
2019-03-12T06:24:21.984Z,95.50
2019-03-12T06:26:54.724Z,95.80
2019-03-12T06:29:27.505Z,95.00
2019-03-12T06:32:34.016Z,95.70
2019-03-12T06:35:37.503Z,96.10
2019-03-12T06:38:27.656Z,97.10
2019-03-12T06:41:07.657Z,97.60
2019-03-12T06:43:58.885Z,98.50
2019-03-12T06:46:59.340Z,97.40
2019-03-12T06:49:43.052Z,97.30
2019-03-12T06:52:25.948Z,99.90
2019-03-12T06:55:03.955Z,99.90
2019-03-12T06:57:51.693Z,99.70
2019-03-12T07:00:42.498Z,99.90
2019-03-12T07:03:33.907Z,98.10
2019-03-12T07:06:31.077Z,97.20
2019-03-12T07:09:21.006Z,95.20
2019-03-12T07:12:03.596Z,94.40
2019-03-12T07:14:54.739Z,94.80
2019-03-12T07:17:59.563Z,94.80
2019-03-12T07:20:49.242Z,94.90
2019-03-12T07:23:26.815Z,95.80
2019-03-12T07:26:20.945Z,94.30
2019-03-12T07:29:17.413Z,95.30
2019-03-12T07:32:07.848Z,95.10
2019-03-12T07:35:00.345Z,94.40
2019-03-12T07:37:57.517Z,93.20
2019-03-12T07:40:39.511Z,92.40
2019-03-12T07:43:36.678Z,90.50
2019-03-12T07:46:30.472Z,89.20
2019-03-12T07:49:20.381Z,88.80
2019-03-12T07:52:34.886Z,88.20
2019-03-12T07:55:32.582Z,82.60
2019-03-12T07:58:36.301Z,78.30
2019-03-12T08:01:36.627Z,73.60
2019-03-12T08:04:33.884Z,68.00
2019-03-12T08:07:24.070Z,63.30
2019-03-12T08:10:27.321Z,63.00
2019-03-12T08:13:27.924Z,59.60
2019-03-12T08:16:24.962Z,56.00
2019-03-12T08:19:25.185Z,55.10
2019-03-12T08:22:19.092Z,54.40
2019-03-12T08:25:07.631Z,52.60
2019-03-12T08:28:01.724Z,52.60
2019-03-12T08:30:55.801Z,50.50
2019-03-12T08:33:51.199Z,52.00
2019-03-12T08:36:41.610Z,52.20
2019-03-12T08:39:51.349Z,51.90
2019-03-12T08:42:34.480Z,51.10
2019-03-12T08:45:27.198Z,49.90
2019-03-12T08:48:17.447Z,50.00
2019-03-12T08:51:08.611Z,52.40
2019-03-12T08:54:02.984Z,54.10
2019-03-12T08:57:12.490Z,55.20
2019-03-12T08:59:52.015Z,56.50
2019-03-12T09:02:45.811Z,59.00
2019-03-12T09:05:34.325Z,58.20
2019-03-12T09:08:37.917Z,58.60
2019-03-12T09:11:27.958Z,58.60
2019-03-12T09:14:43.647Z,59.10
2019-03-12T09:17:26.488Z,60.20
2019-03-12T09:20:26.453Z,61.00
2019-03-12T09:23:30.024Z,61.10
2019-03-12T09:26:30.659Z,59.70
2019-03-12T09:29:20.800Z,60.80
2019-03-12T09:32:27.316Z,60.80
2019-03-12T09:35:21.585Z,61.40
2019-03-12T09:38:05.206Z,60.60
2019-03-12T09:40:56.523Z,58.50
2019-03-12T09:43:48.230Z,57.30
2019-03-12T09:46:48.406Z,56.70
2019-03-12T09:49:42.921Z,58.30
2019-03-12T09:52:37.038Z,58.40
2019-03-12T09:55:28.495Z,59.20
2019-03-12T09:58:18.340Z,57.70
2019-03-12T10:01:10.388Z,57.80
2019-03-12T10:03:58.378Z,59.30
2019-03-12T10:06:48.480Z,59.40
2019-03-12T10:09:36.217Z,59.50
2019-03-12T10:12:21.771Z,58.30
2019-03-12T10:15:06.969Z,57.40
2019-03-12T10:17:58.266Z,55.90
2019-03-12T10:20:52.668Z,55.50
2019-03-12T10:23:47.140Z,55.50
2019-03-12T10:26:37.083Z,56.40
2019-03-12T10:29:27.125Z,57.10
2019-03-12T10:32:13.612Z,58.10
2019-03-12T10:35:04.871Z,57.10
2019-03-12T10:37:56.062Z,56.70
2019-03-12T10:40:53.511Z,55.20
2019-03-12T10:43:43.528Z,56.10
2019-03-12T10:46:33.477Z,55.90
2019-03-12T10:49:06.049Z,55.90
2019-03-12T10:51:38.414Z,55.60
2019-03-12T10:54:10.990Z,56.50
2019-03-12T10:56:43.547Z,53.70
2019-03-12T10:59:16.165Z,53.60
2019-03-12T11:01:48.542Z,54.90
2019-03-12T11:04:21.014Z,54.90
2019-03-12T11:06:53.556Z,51.90
2019-03-12T11:09:26.228Z,50.10
2019-03-12T11:11:58.888Z,51.50
2019-03-12T11:14:31.540Z,52.30
2019-03-12T11:17:04.244Z,53.50
2019-03-12T11:19:36.709Z,54.20
2019-03-12T11:22:10.071Z,54.40
2019-03-12T11:24:42.388Z,54.80
2019-03-12T11:27:15.610Z,55.10
2019-03-12T11:29:47.957Z,55.50
2019-03-12T11:32:20.564Z,54.00
2019-03-12T11:34:52.940Z,52.40
2019-03-12T11:37:25.422Z,52.80
2019-03-12T11:39:57.807Z,52.60
2019-03-12T11:42:30.358Z,51.80
2019-03-12T11:45:02.693Z,52.70
2019-03-12T11:47:35.841Z,52.00
2019-03-12T11:50:10.992Z,51.60
2019-03-12T11:52:52.423Z,51.60
2019-03-12T11:55:18.178Z,51.00
2019-03-12T11:57:51.106Z,50.10
2019-03-12T12:00:28.157Z,51.10
2019-03-12T12:03:01.267Z,51.90
2019-03-12T12:05:33.779Z,51.50
2019-03-12T12:08:06.475Z,51.60
2019-03-12T12:10:39.183Z,51.70
2019-03-12T12:13:13.770Z,51.60
2019-03-12T12:15:46.249Z,52.20
2019-03-12T12:18:18.864Z,51.60
2019-03-12T12:20:51.234Z,50.80
2019-03-12T12:23:23.933Z,50.40
2019-03-12T12:25:56.407Z,49.60
2019-03-12T12:28:28.798Z,49.80
2019-03-12T12:31:01.334Z,48.40
2019-03-12T12:33:34.323Z,48.50
2019-03-12T12:36:07.095Z,49.10
2019-03-12T12:38:39.571Z,48.40
2019-03-12T12:41:12.021Z,50.60
2019-03-12T12:43:44.733Z,51.10
2019-03-12T12:46:17.149Z,49.40
2019-03-12T12:48:49.589Z,50.00
2019-03-12T12:51:22.299Z,50.50
2019-03-12T12:53:54.677Z,50.20
2019-03-12T12:56:27.177Z,49.90
2019-03-12T12:58:59.491Z,51.00
2019-03-12T13:01:32.214Z,50.40
2019-03-12T13:04:04.563Z,51.10
2019-03-12T13:06:37.207Z,51.10
2019-03-12T13:09:10.050Z,51.30
2019-03-12T13:11:42.629Z,51.40
2019-03-12T13:14:15.143Z,51.60
2019-03-12T13:16:47.563Z,52.60
2019-03-12T13:19:20.132Z,53.00
2019-03-12T13:21:52.765Z,52.90
2019-03-12T13:24:25.450Z,51.90
2019-03-12T13:26:58.101Z,51.80
2019-03-12T13:29:30.381Z,52.50
2019-03-12T13:32:12.928Z,52.70
2019-03-12T13:34:37.340Z,52.40
2019-03-12T13:37:09.761Z,51.90
2019-03-12T13:39:42.195Z,52.70
2019-03-12T13:42:14.698Z,51.50
2019-03-12T13:44:47.412Z,52.40
2019-03-12T13:47:20.065Z,52.70
2019-03-12T13:49:52.465Z,53.40
2019-03-12T13:52:24.863Z,53.90
2019-03-12T13:54:57.571Z,54.10
2019-03-12T13:57:30.055Z,54.30
2019-03-12T14:00:02.355Z,54.20
2019-03-12T14:02:34.721Z,54.00
2019-03-12T14:05:07.620Z,54.70
2019-03-12T14:07:39.962Z,53.50
2019-03-12T14:10:15.998Z,54.20
2019-03-12T14:12:48.851Z,54.30
2019-03-12T14:15:25.813Z,54.80
2019-03-12T14:17:58.278Z,55.60
2019-03-12T14:20:43.309Z,55.30
2019-03-12T14:23:22.606Z,55.30
2019-03-12T14:25:55.477Z,55.70
2019-03-12T14:28:28.166Z,52.30
2019-03-12T14:31:00.721Z,50.50
2019-03-12T14:33:33.270Z,49.10
2019-03-12T14:36:05.795Z,48.60
2019-03-12T14:38:38.138Z,49.90
2019-03-12T14:41:10.715Z,49.90
2019-03-12T14:43:43.221Z,50.10
2019-03-12T14:46:15.893Z,51.70
2019-03-12T14:48:54.391Z,50.60
2019-03-12T14:52:33.850Z,49.80
2019-03-12T14:55:07.218Z,49.10
2019-03-12T14:57:39.698Z,49.30
2019-03-12T15:00:21.868Z,47.90
2019-03-12T15:02:54.928Z,48.00
2019-03-12T15:05:38.234Z,48.90
2019-03-12T15:08:13.694Z,47.90
2019-03-12T15:10:46.049Z,47.70
2019-03-12T15:13:18.689Z,47.90
2019-03-12T15:15:51.100Z,47.90
2019-03-12T15:18:23.474Z,48.90
2019-03-12T15:20:55.909Z,48.20
2019-03-12T15:23:46.883Z,49.00
2019-03-12T15:26:19.441Z,49.20
2019-03-12T15:28:52.385Z,49.90
2019-03-12T15:31:24.889Z,50.60
2019-03-12T15:33:57.353Z,51.00
2019-03-12T15:36:29.988Z,51.60
2019-03-12T15:39:02.682Z,52.00
2019-03-12T15:41:35.601Z,51.60
2019-03-12T15:44:26.556Z,51.10
2019-03-12T15:46:58.945Z,51.30
2019-03-12T15:49:31.284Z,51.30
2019-03-12T15:52:04.176Z,51.80
2019-03-12T15:54:36.815Z,51.90
2019-03-12T15:57:09.431Z,51.70
2019-03-12T15:59:42.157Z,52.90
2019-03-12T16:02:14.571Z,53.10
2019-03-12T16:04:47.128Z,53.70
2019-03-12T16:07:19.626Z,54.00
2019-03-12T16:09:52.203Z,54.70
2019-03-12T16:12:24.858Z,55.00
2019-03-12T16:14:57.393Z,55.20
2019-03-12T16:17:29.999Z,54.80
2019-03-12T16:20:02.326Z,54.60
2019-03-12T16:22:34.827Z,54.50
2019-03-12T16:25:08.043Z,54.90
2019-03-12T16:27:40.487Z,55.10
2019-03-12T16:30:13.388Z,55.20
2019-03-12T16:32:45.884Z,55.30
2019-03-12T16:35:18.308Z,55.50
2019-03-12T16:37:50.739Z,56.30
2019-03-12T16:40:23.048Z,56.70
2019-03-12T16:42:55.347Z,57.40
2019-03-12T16:45:27.726Z,58.00
2019-03-12T16:48:00.875Z,58.30
2019-03-12T16:50:33.394Z,58.80
2019-03-12T16:53:05.971Z,59.00
2019-03-12T16:55:38.355Z,59.70
2019-03-12T16:58:10.772Z,61.00
2019-03-12T17:00:43.178Z,61.00
2019-03-12T17:03:15.560Z,60.60
2019-03-12T17:05:48.242Z,66.20
2019-03-12T17:08:20.876Z,69.60
2019-03-12T17:10:59.769Z,67.60
2019-03-12T17:13:27.193Z,68.30
2019-03-12T17:15:59.620Z,67.10
2019-03-12T17:18:32.294Z,65.70
2019-03-12T17:21:04.969Z,65.70
2019-03-12T17:23:48.459Z,68.30
2019-03-12T17:26:20.788Z,64.90
2019-03-12T17:28:53.136Z,64.40
2019-03-12T17:31:25.530Z,65.30
2019-03-12T17:33:57.804Z,65.60
2019-03-12T17:36:30.640Z,66.20
2019-03-12T17:39:04.945Z,66.40
2019-03-12T17:41:37.571Z,67.00
2019-03-12T17:44:10.009Z,67.80
2019-03-12T17:46:42.303Z,67.80
2019-03-12T17:49:14.755Z,67.50
2019-03-12T17:51:47.305Z,67.30
2019-03-12T17:54:19.969Z,67.40
2019-03-12T17:56:53.140Z,67.30
2019-03-12T17:59:25.376Z,67.20
2019-03-12T18:01:58.641Z,71.20
2019-03-12T18:04:31.215Z,72.10
2019-03-12T18:07:04.238Z,68.00
2019-03-12T18:09:36.871Z,67.50
2019-03-12T18:12:09.540Z,67.50
2019-03-12T18:14:41.937Z,67.50
2019-03-12T18:17:14.432Z,67.40
2019-03-12T18:19:46.767Z,68.00
2019-03-12T18:22:19.265Z,68.00
2019-03-12T18:24:51.365Z,67.90
2019-03-12T18:27:24.037Z,68.00
2019-03-12T18:29:56.563Z,68.80
2019-03-12T18:32:32.834Z,69.80
2019-03-12T18:35:07.279Z,69.60
2019-03-12T18:37:39.891Z,71.20
2019-03-12T18:40:16.331Z,71.60
2019-03-12T18:42:49.036Z,71.70
2019-03-12T18:45:22.926Z,73.50
2019-03-12T18:47:55.520Z,74.20
2019-03-12T18:50:28.096Z,75.50
2019-03-12T18:53:00.654Z,78.50
2019-03-12T18:56:03.416Z,79.40
2019-03-12T18:58:54.576Z,76.40
2019-03-12T19:01:27.122Z,75.80
2019-03-12T19:03:59.754Z,76.40
2019-03-12T19:06:32.356Z,76.80
2019-03-12T19:09:06.060Z,77.40
2019-03-12T19:11:38.580Z,77.70
2019-03-12T19:14:11.191Z,77.80
2019-03-12T19:16:43.825Z,77.80
2019-03-12T19:19:16.525Z,76.70
2019-03-12T19:21:49.546Z,76.20
2019-03-12T19:24:22.329Z,77.00
2019-03-12T19:26:55.892Z,78.40
2019-03-12T19:29:28.340Z,85.10
2019-03-12T19:32:18.478Z,88.10
2019-03-12T19:34:52.243Z,84.80
2019-03-12T19:37:25.054Z,82.80
2019-03-12T19:39:57.878Z,83.00
2019-03-12T19:42:30.514Z,83.20
2019-03-12T19:45:03.731Z,83.60
2019-03-12T19:47:36.265Z,82.80
2019-03-12T19:50:12.058Z,82.90
2019-03-12T19:52:46.193Z,83.60
2019-03-12T19:55:21.583Z,83.80
2019-03-12T19:57:54.955Z,84.20
2019-03-12T20:00:28.558Z,84.10
2019-03-12T20:03:11.732Z,83.40
2019-03-12T20:05:35.381Z,83.10
2019-03-12T20:08:08.399Z,82.30
2019-03-12T20:11:34.806Z,84.20
2019-03-12T20:15:14.131Z,85.60
2019-03-12T20:19:10.781Z,86.10
2019-03-12T20:22:37.702Z,85.10
2019-03-12T20:26:39.429Z,85.10
2019-03-12T20:30:37.773Z,85.60
2019-03-12T20:34:55.194Z,85.00
2019-03-12T20:38:27.455Z,84.30
2019-03-12T20:42:00.344Z,84.60
2019-03-12T20:45:43.593Z,84.40
2019-03-12T20:49:26.071Z,84.80
2019-03-12T20:52:52.319Z,85.10
2019-03-12T20:56:31.154Z,85.10
2019-03-12T21:00:23.302Z,86.10
2019-03-12T21:03:49.167Z,86.90
2019-03-12T21:07:30.769Z,94.50
2019-03-12T21:11:07.165Z,93.90
2019-03-12T21:14:20.085Z,90.60
2019-03-12T21:17:37.844Z,91.20
2019-03-12T21:21:39.026Z,91.20
2019-03-12T21:25:35.421Z,91.50
2019-03-12T21:29:00.706Z,91.50
2019-03-12T21:31:34.284Z,94.50
2019-03-12T21:34:14.128Z,93.40
2019-03-12T21:36:47.861Z,91.80
2019-03-12T21:39:20.906Z,92.00
2019-03-12T21:41:53.598Z,92.70
2019-03-12T21:44:26.487Z,92.30
2019-03-12T21:46:59.875Z,92.10
2019-03-12T21:49:32.796Z,92.30
2019-03-12T21:52:06.075Z,92.40
2019-03-12T21:54:39.207Z,92.80
2019-03-12T21:57:11.641Z,93.30
2019-03-12T21:59:44.454Z,93.30
2019-03-12T22:02:17.042Z,93.50
2019-03-12T22:04:49.309Z,93.40
2019-03-12T22:07:21.849Z,93.50
2019-03-12T22:09:55.421Z,93.80
2019-03-12T22:12:29.215Z,93.70
2019-03-12T22:15:01.761Z,93.30
2019-03-12T22:17:34.583Z,93.00
2019-03-12T22:20:08.761Z,92.60
2019-03-12T22:22:59.958Z,93.10
2019-03-12T22:25:32.800Z,93.00
2019-03-12T22:28:05.287Z,96.00
2019-03-12T22:30:38.224Z,96.90
2019-03-12T22:33:11.243Z,95.80
2019-03-12T22:35:44.045Z,95.30
2019-03-12T22:38:16.657Z,93.00
2019-03-12T22:40:49.460Z,91.40
2019-03-12T22:43:21.859Z,91.00
2019-03-12T22:45:54.448Z,91.20
2019-03-12T22:48:26.732Z,91.10
2019-03-12T22:50:59.274Z,91.70
2019-03-12T22:53:33.671Z,92.10
2019-03-12T22:56:06.037Z,92.50
2019-03-12T22:58:38.731Z,92.90
2019-03-12T23:01:11.296Z,93.20
2019-03-12T23:03:43.694Z,93.10
2019-03-12T23:06:16.271Z,92.80
2019-03-12T23:08:48.630Z,92.50
2019-03-12T23:11:21.335Z,92.30
2019-03-12T23:13:53.767Z,92.20
2019-03-12T23:16:26.161Z,91.90
2019-03-12T23:18:59.592Z,92.20
2019-03-12T23:21:32.028Z,92.10
2019-03-12T23:24:04.262Z,92.20
2019-03-12T23:26:36.845Z,92.00
2019-03-12T23:29:09.172Z,92.20
2019-03-12T23:31:41.484Z,92.60
2019-03-12T23:34:14.463Z,92.90
2019-03-12T23:36:46.906Z,93.50
2019-03-12T23:39:19.360Z,93.50
2019-03-12T23:41:51.824Z,93.10
2019-03-12T23:44:24.650Z,93.30
2019-03-12T23:46:57.135Z,93.90
2019-03-12T23:49:29.754Z,93.90
2019-03-12T23:52:02.832Z,93.80
2019-03-12T23:54:35.346Z,93.80
2019-03-12T23:57:07.940Z,93.40
2019-03-12T23:59:40.916Z,93.60
